Time;durP1;ratioP1;P1;durP2;ratioP2;P2;SDS_P1;SDS_P2;PMS_P1;PMS_P2;Temp;Humidity;BMP_temperature;BMP_pressure;BME280_temperature;BME280_humidity;BME280_pressure;Samples;Min_cycle;Max_cycle;Signal;HPM_P1;HPM_P2
2021/07/25 00:00:08;;;;;;;12.38;9.05;;;20.80;60.30;;;;;;5072693;28;20036;-61
2021/07/25 00:02:34;;;;;;;9.93;7.97;;;20.90;60.30;;;;;;5072168;28;20071;-61
2021/07/25 00:05:01;;;;;;;10.18;7.60;;;20.90;60.40;;;;;;5072500;28;20130;-61
2021/07/25 00:07:26;;;;;;;10.25;7.80;;;20.90;60.30;;;;;;5072115;28;20032;-61
2021/07/25 00:09:52;;;;;;;10.02;7.68;;;20.90;60.30;;;;;;5072242;28;20024;-61
2021/07/25 00:12:18;;;;;;;10.73;8.05;;;20.90;60.20;;;;;;5072378;28;20418;-61
2021/07/25 00:14:44;;;;;;;10.45;8.20;;;21.00;60.30;;;;;;5071963;28;20470;-61
2021/07/25 00:17:09;;;;;;;11.77;8.90;;;20.90;60.40;;;;;;5054110;28;20388;-61
2021/07/25 00:19:35;;;;;;;11.27;9.10;;;21.00;60.60;;;;;;5072222;28;20059;-61
2021/07/25 00:22:02;;;;;;;11.35;9.00;;;21.00;60.70;;;;;;5071894;28;20472;-61
2021/07/25 00:24:33;;;;;;;10.75;8.55;;;20.90;60.70;;;;;;5072118;28;20047;-61
2021/07/25 00:27:00;;;;;;;10.80;8.85;;;20.90;60.70;;;;;;5072095;28;20116;-61
2021/07/25 00:29:30;;;;;;;11.70;9.00;;;20.90;60.70;;;;;;5072479;28;20120;-61
2021/07/25 00:32:03;;;;;;;13.40;9.65;;;20.80;60.70;;;;;;5071650;28;20086;-61
2021/07/25 00:34:29;;;;;;;12.40;8.95;;;20.80;60.80;;;;;;5071816;28;20074;-60
2021/07/25 00:36:56;;;;;;;12.93;9.77;;;20.80;60.80;;;;;;5071645;28;20027;-60
2021/07/25 00:39:22;;;;;;;11.75;9.35;;;20.80;61.00;;;;;;5071795;28;20112;-62
2021/07/25 00:41:47;;;;;;;11.45;9.32;;;20.70;60.90;;;;;;5052973;28;20530;-62
2021/07/25 00:44:13;;;;;;;10.57;8.65;;;20.70;61.00;;;;;;5071642;28;20077;-60
2021/07/25 00:46:39;;;;;;;12.48;9.20;;;20.70;60.90;;;;;;5071584;28;20025;-60
2021/07/25 00:49:05;;;;;;;10.43;8.07;;;20.60;60.70;;;;;;5071657;28;20032;-61
2021/07/25 00:51:31;;;;;;;13.23;10.20;;;20.60;60.70;;;;;;5071793;28;20028;-60
2021/07/25 00:53:57;;;;;;;14.40;10.93;;;20.60;61.20;;;;;;5053736;28;20435;-61
2021/07/25 00:56:22;;;;;;;12.07;10.07;;;20.50;61.10;;;;;;5071582;28;20032;-60
2021/07/25 00:58:48;;;;;;;15.40;11.18;;;20.50;61.70;;;;;;5071334;28;20036;-60
2021/07/25 01:01:14;;;;;;;13.55;10.68;;;20.50;61.20;;;;;;5071444;28;20033;-61
2021/07/25 01:04:15;;;;;;;12.05;9.52;;;20.40;61.50;;;;;;5071293;28;20041;-61
2021/07/25 01:07:03;;;;;;;12.45;8.43;;;20.40;61.30;;;;;;4982434;28;20039;-61
2021/07/25 01:09:52;;;;;;;13.48;10.55;;;20.30;61.20;;;;;;5071445;28;20361;-61
2021/07/25 01:12:43;;;;;;;13.00;10.25;;;20.30;61.40;;;;;;5071387;28;20434;-61
2021/07/25 01:15:14;;;;;;;10.95;9.20;;;20.30;61.50;;;;;;5031679;28;20039;-60
2021/07/25 01:17:39;;;;;;;12.05;9.57;;;20.30;61.40;;;;;;5031084;28;20072;-60
2021/07/25 01:20:06;;;;;;;13.15;10.00;;;20.30;61.60;;;;;;5031284;28;20026;-60
2021/07/25 01:22:41;;;;;;;10.38;8.38;;;20.30;61.60;;;;;;5031284;28;20025;-60
2021/07/25 01:25:09;;;;;;;9.75;7.68;;;20.30;61.50;;;;;;5031487;28;20396;-61
2021/07/25 01:27:42;;;;;;;9.52;7.18;;;20.30;61.30;;;;;;5031162;28;20527;-61
2021/07/25 01:30:09;;;;;;;;;;;20.30;61.20;;;;;;5031087;28;20033;-61
2021/07/25 01:32:37;;;;;;;10.65;7.45;;;20.20;61.20;;;;;;5031202;28;19905;-61
2021/07/25 01:35:05;;;;;;;9.23;7.13;;;20.20;61.10;;;;;;5031070;28;20037;-61
2021/07/25 01:37:33;;;;;;;9.43;7.57;;;20.10;61.10;;;;;;5031066;28;20101;-61
2021/07/25 01:39:59;;;;;;;9.90;8.20;;;20.10;61.30;;;;;;5031088;28;20022;-61
2021/07/25 01:42:31;;;;;;;10.23;7.72;;;20.10;61.50;;;;;;5030891;28;20040;-61
2021/07/25 01:44:58;;;;;;;10.45;8.55;;;20.10;61.40;;;;;;5031151;28;20014;-61
2021/07/25 01:47:24;;;;;;;10.43;7.88;;;20.20;61.60;;;;;;5031134;28;20101;-61
2021/07/25 01:49:50;;;;;;;12.05;9.15;;;20.20;61.70;;;;;;5031117;28;20045;-61
2021/07/25 01:52:16;;;;;;;11.85;8.52;;;20.20;62.00;;;;;;5018075;28;20519;-60
2021/07/25 01:54:43;;;;;;;10.43;8.25;;;20.20;62.00;;;;;;5035037;28;20033;-61
2021/07/25 01:57:09;;;;;;;11.38;9.13;;;20.20;62.00;;;;;;5034730;28;20041;-61
2021/07/25 01:59:35;;;;;;;13.75;9.60;;;20.20;62.20;;;;;;5034893;28;20025;-61
2021/07/25 02:02:00;;;;;;;11.55;8.95;;;20.30;62.50;;;;;;5034418;28;20500;-61
2021/07/25 02:04:26;;;;;;;10.18;8.30;;;20.30;62.60;;;;;;5034893;28;20488;-61
2021/07/25 02:06:52;;;;;;;10.75;8.27;;;20.30;62.70;;;;;;5034622;28;20534;-61
2021/07/25 02:09:17;;;;;;;11.00;8.18;;;20.20;62.70;;;;;;5034668;28;20532;-62
2021/07/25 02:11:43;;;;;;;10.35;8.38;;;20.10;62.70;;;;;;5034605;28;20063;-61
2021/07/25 02:14:09;;;;;;;11.18;8.43;;;20.10;62.90;;;;;;5061659;28;20025;-61
2021/07/25 02:16:35;;;;;;;12.25;9.20;;;20.00;63.10;;;;;;5074498;28;20020;-61
2021/07/25 02:19:01;;;;;;;11.98;9.90;;;20.00;63.40;;;;;;5056542;28;20445;-61
2021/07/25 02:21:26;;;;;;;11.98;9.32;;;19.90;63.50;;;;;;5074518;28;20028;-61
2021/07/25 02:23:52;;;;;;;13.85;9.57;;;19.90;63.40;;;;;;5074294;28;20107;-61
2021/07/25 02:26:17;;;;;;;12.68;9.65;;;19.90;63.50;;;;;;5074305;28;20020;-61
2021/07/25 02:28:43;;;;;;;12.48;9.25;;;19.90;63.40;;;;;;5056324;28;20378;-62
2021/07/25 02:31:09;;;;;;;13.82;10.00;;;19.90;63.40;;;;;;5056312;28;20028;-61
2021/07/25 02:33:34;;;;;;;15.27;11.85;;;19.90;63.60;;;;;;5074253;28;20048;-62
2021/07/25 02:36:00;;;;;;;16.33;12.13;;;19.90;63.50;;;;;;5073963;28;20467;-62
2021/07/25 02:38:26;;;;;;;18.02;13.88;;;19.90;63.80;;;;;;5073859;28;20055;-61
2021/07/25 02:40:52;;;;;;;16.45;12.65;;;19.90;63.90;;;;;;5073907;28;20456;-61
2021/07/25 02:43:17;;;;;;;15.93;11.57;;;19.90;63.90;;;;;;5074027;28;20024;-61
2021/07/25 02:45:43;;;;;;;14.13;11.13;;;19.90;64.20;;;;;;5074120;28;20017;-61
2021/07/25 02:48:09;;;;;;;15.40;10.82;;;19.80;64.30;;;;;;5073798;28;20090;-61
2021/07/25 02:50:34;;;;;;;15.80;12.00;;;19.80;64.50;;;;;;5073589;28;20055;-62
2021/07/25 02:53:00;;;;;;;15.32;12.23;;;19.80;64.90;;;;;;5073012;28;20027;-61
2021/07/25 02:55:26;;;;;;;17.45;14.75;;;19.70;65.00;;;;;;5066070;28;20078;-61
2021/07/25 02:57:52;;;;;;;15.73;13.20;;;19.80;65.90;;;;;;5073740;28;20458;-62
2021/07/25 03:00:18;;;;;;;15.95;12.02;;;19.70;65.90;;;;;;5073612;28;20028;-61
2021/07/25 03:02:43;;;;;;;14.75;11.45;;;19.60;65.90;;;;;;5073367;28;20509;-61
2021/07/25 03:05:10;;;;;;;15.32;12.55;;;19.60;66.00;;;;;;5072630;28;20027;-61
2021/07/25 03:07:36;;;;;;;15.15;11.30;;;19.50;66.10;;;;;;5073371;28;20424;-61
2021/07/25 03:10:02;;;;;;;16.48;13.00;;;19.50;66.10;;;;;;5073212;28;20078;-61
2021/07/25 03:12:28;;;;;;;16.30;13.68;;;19.60;66.70;;;;;;5073314;28;20082;-61
2021/07/25 03:14:53;;;;;;;23.05;18.65;;;19.60;67.00;;;;;;5073121;28;20025;-61
2021/07/25 03:17:19;;;;;;;23.90;18.55;;;19.70;66.80;;;;;;5073208;28;20365;-61
2021/07/25 03:19:45;;;;;;;22.13;17.88;;;19.70;66.60;;;;;;5073320;28;20027;-61
2021/07/25 03:22:11;;;;;;;22.48;19.45;;;19.80;66.60;;;;;;5073203;28;20383;-61
2021/07/25 03:24:37;;;;;;;19.75;16.38;;;19.90;66.90;;;;;;5072933;28;20357;-61
2021/07/25 03:27:03;;;;;;;18.75;14.98;;;20.00;66.60;;;;;;5073059;28;20016;-61
2021/07/25 03:29:29;;;;;;;17.63;14.00;;;20.00;66.50;;;;;;5055068;28;20027;-62
2021/07/25 03:31:54;;;;;;;16.15;12.60;;;20.00;66.50;;;;;;5073164;28;20029;-61
2021/07/25 03:34:20;;;;;;;15.27;12.75;;;20.00;66.30;;;;;;5073096;28;20025;-61
2021/07/25 03:36:46;;;;;;;14.02;11.88;;;20.10;66.60;;;;;;5072871;28;20031;-62
2021/07/25 03:39:15;;;;;;;16.35;12.52;;;20.10;66.40;;;;;;5072829;28;20444;-61
2021/07/25 03:41:41;;;;;;;14.77;12.00;;;20.10;66.50;;;;;;5072684;28;20021;-61
2021/07/25 03:44:06;;;;;;;15.25;13.27;;;20.10;66.40;;;;;;5072757;28;20027;-61
2021/07/25 03:46:33;;;;;;;14.95;12.45;;;20.10;66.40;;;;;;5054700;28;20020;-61
2021/07/25 03:48:59;;;;;;;15.77;11.80;;;20.20;66.50;;;;;;5073036;28;20025;-61
2021/07/25 03:51:24;;;;;;;16.70;12.55;;;20.20;66.50;;;;;;5072733;28;20024;-61
2021/07/25 03:53:50;;;;;;;15.25;12.05;;;20.30;66.50;;;;;;5065661;28;20401;-61
2021/07/25 03:56:19;;;;;;;14.10;11.13;;;20.20;66.40;;;;;;5071866;28;20115;-61
2021/07/25 03:58:45;;;;;;;13.30;10.32;;;20.30;66.30;;;;;;5072682;28;20497;-61
2021/07/25 04:01:10;;;;;;;13.75;11.05;;;20.30;66.20;;;;;;5072386;28;20054;-61
2021/07/25 04:03:37;;;;;;;13.43;10.45;;;20.30;66.20;;;;;;5072161;28;20048;-61
2021/07/25 04:06:03;;;;;;;18.63;13.98;;;20.40;66.30;;;;;;5072061;28;20379;-62
2021/07/25 04:08:29;;;;;;;15.48;12.73;;;20.40;66.60;;;;;;5072121;28;20108;-61
2021/07/25 04:10:55;;;;;;;15.15;12.13;;;20.50;66.70;;;;;;5072104;28;20021;-61
2021/07/25 04:13:20;;;;;;;15.05;12.50;;;20.50;66.50;;;;;;5071970;28;20028;-60
2021/07/25 04:15:47;;;;;;;12.93;10.93;;;20.50;66.70;;;;;;5072222;28;20029;-61
2021/07/25 04:18:13;;;;;;;14.23;10.88;;;20.60;66.60;;;;;;5071893;28;20111;-61
2021/07/25 04:20:38;;;;;;;13.57;11.15;;;20.70;66.60;;;;;;5072193;28;20107;-61
2021/07/25 04:23:04;;;;;;;14.45;11.93;;;20.80;66.70;;;;;;5071753;28;20029;-62
2021/07/25 04:25:31;;;;;;;15.18;11.32;;;20.90;66.80;;;;;;5071876;28;20082;-62
2021/07/25 04:28:01;;;;;;;13.85;11.07;;;21.00;66.80;;;;;;5071618;28;20020;-61
2021/07/25 04:30:28;;;;;;;15.18;12.15;;;21.10;66.80;;;;;;5071977;28;20433;-62
2021/07/25 04:32:54;;;;;;;12.88;11.02;;;21.20;66.70;;;;;;5072120;28;20070;-61
2021/07/25 04:35:21;;;;;;;13.85;10.93;;;21.30;66.60;;;;;;5071598;28;20483;-62
2021/07/25 04:37:48;;;;;;;13.52;10.77;;;21.50;66.50;;;;;;5071645;28;20077;-61
2021/07/25 04:40:16;;;;;;;13.38;10.15;;;21.50;66.30;;;;;;5071558;28;20103;-62
2021/07/25 04:42:46;;;;;;;12.52;10.27;;;21.60;66.30;;;;;;5071606;28;20455;-62
2021/07/25 04:45:16;;;;;;;12.35;9.88;;;21.70;66.40;;;;;;5071487;28;20021;-62
2021/07/25 04:47:57;;;;;;;12.02;9.85;;;21.90;66.40;;;;;;5071380;28;20096;-62
2021/07/25 04:50:27;;;;;;;11.70;10.18;;;22.00;66.40;;;;;;5071396;28;20463;-62
2021/07/25 04:53:00;;;;;;;11.38;10.00;;;22.10;66.30;;;;;;5071571;28;20532;-62
2021/07/25 04:55:33;;;;;;;12.00;9.95;;;22.20;66.20;;;;;;5071850;28;20063;-62
2021/07/25 04:58:07;;;;;;;11.20;8.75;;;22.30;66.10;;;;;;5071104;28;20040;-62
2021/07/25 05:00:42;;;;;;;11.95;9.18;;;22.40;66.00;;;;;;5071298;28;20031;-62
2021/07/25 05:03:08;;;;;;;10.70;9.13;;;22.50;66.50;;;;;;5071247;28;20049;-62
2021/07/25 05:05:35;;;;;;;11.43;8.95;;;22.60;65.90;;;;;;5071472;28;20056;-62
2021/07/25 05:08:01;;;;;;;10.35;8.50;;;22.70;65.80;;;;;;5071139;28;20016;-61
2021/07/25 05:10:29;;;;;;;11.25;8.30;;;22.80;65.60;;;;;;5071271;28;20032;-61
2021/07/25 05:13:13;;;;;;;9.88;8.10;;;22.90;65.50;;;;;;5070835;28;20111;-62
2021/07/25 05:15:45;;;;;;;9.77;8.07;;;23.00;65.50;;;;;;5071121;28;20072;-61
2021/07/25 05:18:28;;;;;;;10.45;8.32;;;23.10;65.10;;;;;;5071488;28;20029;-61
2021/07/25 05:21:06;;;;;;;10.93;8.43;;;23.20;65.10;;;;;;5070887;28;20028;-62
2021/07/25 05:23:42;;;;;;;10.63;7.82;;;23.40;64.90;;;;;;5071057;28;20025;-62
2021/07/25 05:26:10;;;;;;;9.88;7.93;;;23.50;64.60;;;;;;5071139;28;20021;-62
2021/07/25 05:28:41;;;;;;;9.70;7.63;;;23.60;64.50;;;;;;5058477;28;20430;-61
2021/07/25 05:31:08;;;;;;;10.48;8.13;;;23.70;64.30;;;;;;5077779;28;20059;-62
2021/07/25 05:33:34;;;;;;;10.88;8.73;;;23.80;64.00;;;;;;5077656;28;20099;-62
2021/07/25 05:36:00;;;;;;;11.68;8.38;;;23.90;64.00;;;;;;5077547;28;20087;-61
2021/07/25 05:38:26;;;;;;;10.73;8.23;;;24.00;63.80;;;;;;5077608;28;20021;-61
2021/07/25 05:40:52;;;;;;;10.82;8.00;;;24.20;63.70;;;;;;5077674;28;20028;-61
2021/07/25 05:43:18;;;;;;;11.73;9.00;;;24.30;63.50;;;;;;5077427;28;20051;-62
2021/07/25 05:45:44;;;;;;;10.32;8.57;;;24.40;63.30;;;;;;5077761;28;20416;-61
2021/07/25 05:48:10;;;;;;;11.07;9.02;;;24.50;62.90;;;;;;5077388;28;20115;-61
2021/07/25 05:50:36;;;;;;;10.68;8.68;;;24.50;62.70;;;;;;5077676;28;20096;-61
2021/07/25 05:53:02;;;;;;;10.88;8.60;;;24.60;62.50;;;;;;5076639;28;20062;-61
2021/07/25 05:55:33;;;;;;;12.05;8.95;;;24.70;62.20;;;;;;5070463;28;20025;-62
2021/07/25 05:58:00;;;;;;;12.35;8.88;;;24.80;62.00;;;;;;5077391;28;20135;-62
2021/07/25 06:00:26;;;;;;;10.48;8.70;;;24.90;61.80;;;;;;5077879;28;20071;-62
2021/07/25 06:02:59;;;;;;;11.60;8.43;;;25.00;61.70;;;;;;5077037;28;20045;-62
2021/07/25 06:05:31;;;;;;;10.57;8.50;;;25.10;61.70;;;;;;5077461;28;20017;-63
2021/07/25 06:07:58;;;;;;;10.80;8.73;;;25.20;61.80;;;;;;5077384;28;20074;-63
2021/07/25 06:10:27;;;;;;;9.80;7.97;;;25.30;61.80;;;;;;5077393;28;20058;-64
2021/07/25 06:12:56;;;;;;;10.57;8.10;;;25.40;61.90;;;;;;5077090;28;20032;-63
2021/07/25 06:15:22;;;;;;;11.30;9.35;;;25.50;62.00;;;;;;5077532;28;20024;-62
2021/07/25 06:17:50;;;;;;;10.73;7.97;;;25.60;62.00;;;;;;5077522;28;20052;-62
2021/07/25 06:20:15;;;;;;;10.70;7.60;;;25.60;61.80;;;;;;5077282;28;20052;-63
2021/07/25 06:22:42;;;;;;;8.65;6.88;;;25.70;61.60;;;;;;5077292;28;20454;-63
2021/07/25 06:25:09;;;;;;;11.73;8.07;;;25.80;61.60;;;;;;5077278;28;20020;-63
2021/07/25 06:27:36;;;;;;;10.70;8.25;;;25.90;61.50;;;;;;5077320;28;20024;-62
2021/07/25 06:30:02;;;;;;;10.73;8.13;;;26.00;61.20;;;;;;5076991;28;20048;-62
2021/07/25 06:32:28;;;;;;;11.55;9.25;;;26.10;61.10;;;;;;5077177;28;20029;-62
2021/07/25 06:34:53;;;;;;;10.85;8.70;;;26.30;61.10;;;;;;5077301;28;20091;-62
2021/07/25 06:37:19;;;;;;;10.10;8.50;;;26.40;61.00;;;;;;5077221;28;20036;-62
2021/07/25 06:39:44;;;;;;;10.75;8.82;;;26.50;60.80;;;;;;5073923;28;20024;-62
2021/07/25 06:42:11;;;;;;;9.98;7.95;;;26.70;60.60;;;;;;5073781;28;20025;-63
2021/07/25 06:44:37;;;;;;;11.35;8.20;;;26.80;60.40;;;;;;5073934;28;20091;-64
2021/07/25 06:47:03;;;;;;;10.32;8.20;;;27.00;60.20;;;;;;5073765;28;20028;-62
2021/07/25 06:49:28;;;;;;;12.27;9.55;;;27.10;60.00;;;;;;5073619;28;20071;-61
2021/07/25 06:51:54;;;;;;;10.20;8.63;;;27.10;59.90;;;;;;5073573;28;20032;-61
2021/07/25 06:54:20;;;;;;;11.02;8.07;;;27.20;59.80;;;;;;5073944;28;20020;-62
2021/07/25 06:56:45;;;;;;;9.88;8.23;;;27.20;59.80;;;;;;5073531;28;20024;-63
2021/07/25 06:59:11;;;;;;;10.57;7.65;;;27.30;59.70;;;;;;5073589;28;20384;-63
2021/07/25 07:01:37;;;;;;;9.65;7.85;;;27.30;59.50;;;;;;5055658;28;20029;-62
2021/07/25 07:04:02;;;;;;;10.73;8.10;;;27.40;59.50;;;;;;5073270;28;20040;-62
2021/07/25 07:06:28;;;;;;;9.40;7.63;;;27.50;60.20;;;;;;5073574;28;20025;-63
2021/07/25 07:08:53;;;;;;;11.95;9.00;;;27.50;59.50;;;;;;5073319;28;20028;-62
2021/07/25 07:11:26;;;;;;;9.70;8.15;;;27.50;59.20;;;;;;5065135;28;20024;-62
2021/07/25 07:13:53;;;;;;;9.60;7.70;;;27.60;59.20;;;;;;5073217;28;20447;-62
2021/07/25 07:16:18;;;;;;;11.05;9.30;;;27.70;59.10;;;;;;5073281;28;20023;-62
2021/07/25 07:18:44;;;;;;;10.52;8.00;;;27.70;58.70;;;;;;5055267;28;20459;-62
2021/07/25 07:21:09;;;;;;;9.02;7.85;;;27.70;58.60;;;;;;5073036;28;20036;-61
2021/07/25 07:23:35;;;;;;;9.00;7.65;;;27.80;58.30;;;;;;5073121;28;20021;-63
2021/07/25 07:26:01;;;;;;;8.85;7.13;;;27.90;58.10;;;;;;5073130;28;20375;-62
2021/07/25 07:28:26;;;;;;;9.63;7.82;;;28.00;57.80;;;;;;5073120;28;20082;-63
2021/07/25 07:30:52;;;;;;;9.32;7.10;;;28.10;57.40;;;;;;5073119;28;20029;-62
2021/07/25 07:33:20;;;;;;;8.05;6.68;;;28.20;56.80;;;;;;5073397;28;20043;-62
2021/07/25 07:35:46;;;;;;;8.10;6.45;;;28.30;56.30;;;;;;5073212;28;20539;-63
2021/07/25 07:38:13;;;;;;;8.98;6.63;;;28.30;56.10;;;;;;5054964;28;20029;-63
2021/07/25 07:40:40;;;;;;;9.68;8.63;;;28.40;55.70;;;;;;5073096;28;20117;-63
2021/07/25 07:43:07;;;;;;;9.45;7.35;;;28.60;54.60;;;;;;5072994;28;20025;-63
2021/07/25 07:45:35;;;;;;;9.90;7.20;;;28.70;54.80;;;;;;5073055;28;20394;-62
2021/07/25 07:48:01;;;;;;;9.38;7.13;;;28.80;54.80;;;;;;5072643;28;20153;-62
2021/07/25 07:50:26;;;;;;;10.40;7.55;;;29.00;54.70;;;;;;5072620;28;20498;-62
2021/07/25 07:52:52;;;;;;;8.95;7.32;;;29.20;54.50;;;;;;5072574;28;20020;-63
2021/07/25 07:55:18;;;;;;;9.20;7.80;;;29.30;54.10;;;;;;5072312;28;20033;-62
2021/07/25 07:57:44;;;;;;;9.10;7.55;;;29.40;53.40;;;;;;5072354;28;20037;-63
2021/07/25 08:00:11;;;;;;;8.90;7.15;;;29.50;53.30;;;;;;5072472;28;20028;-65
2021/07/25 08:02:37;;;;;;;8.93;7.13;;;29.60;53.50;;;;;;5072219;28;20044;-65
2021/07/25 08:05:03;;;;;;;9.27;6.40;;;29.80;53.60;;;;;;5072440;28;20017;-66
2021/07/25 08:07:29;;;;;;;7.97;7.00;;;30.20;53.30;;;;;;5072244;28;20193;-63
2021/07/25 08:09:55;;;;;;;8.07;6.43;;;30.40;52.40;;;;;;5072180;28;20055;-62
2021/07/25 08:12:20;;;;;;;9.88;7.47;;;30.70;52.30;;;;;;5064155;28;20056;-63
2021/07/25 08:14:46;;;;;;;7.95;6.55;;;31.00;51.50;;;;;;5072162;28;20379;-63
2021/07/25 08:17:12;;;;;;;7.97;6.47;;;31.30;51.10;;;;;;5072114;28;20077;-62
2021/07/25 08:19:37;;;;;;;11.07;7.50;;;31.60;50.30;;;;;;5072205;28;20479;-63
2021/07/25 08:22:05;;;;;;;8.45;7.30;;;31.90;48.70;;;;;;5072365;28;20024;-63
2021/07/25 08:24:30;;;;;;;8.98;7.70;;;32.20;48.60;;;;;;5053981;28;20021;-62
2021/07/25 08:26:56;;;;;;;8.90;7.47;;;32.50;47.80;;;;;;5071936;28;20483;-67
2021/07/25 08:29:22;;;;;;;8.52;6.63;;;32.80;47.70;;;;;;5072021;28;20121;-64
2021/07/25 08:31:47;;;;;;;6.95;5.63;;;33.00;47.60;;;;;;5071954;28;20028;-63
2021/07/25 08:34:13;;;;;;;8.77;6.00;;;33.20;47.30;;;;;;5071809;28;20036;-63
2021/07/25 08:36:39;;;;;;;6.97;5.35;;;33.10;46.60;;;;;;5071970;28;20486;-63
2021/07/25 08:39:05;;;;;;;7.15;5.88;;;33.00;46.50;;;;;;5071678;28;20515;-61
2021/07/25 08:41:53;;;;;;;7.45;5.20;;;32.80;45.90;;;;;;5053769;28;20028;-62
2021/07/25 08:44:37;;;;;;;6.50;5.03;;;32.40;45.30;;;;;;5063192;28;20028;-62
2021/07/25 08:47:17;;;;;;;6.70;4.97;;;32.00;45.10;;;;;;5071434;28;20023;-62
2021/07/25 08:49:54;;;;;;;6.20;4.80;;;31.70;45.70;;;;;;5071645;28;20025;-64
2021/07/25 08:52:23;;;;;;;6.65;4.95;;;31.50;45.40;;;;;;5063319;28;20487;-61
2021/07/25 08:54:49;;;;;;;6.88;4.85;;;31.30;45.80;;;;;;5063452;28;20119;-62
2021/07/25 08:57:17;;;;;;;6.22;4.85;;;31.00;45.80;;;;;;5071484;28;20112;-61
2021/07/25 08:59:45;;;;;;;6.63;4.88;;;30.80;46.10;;;;;;5071516;28;20020;-64
2021/07/25 09:02:30;;;;;;;6.45;5.05;;;30.50;46.20;;;;;;5070243;28;20423;-61
2021/07/25 09:04:57;;;;;;;5.97;4.40;;;30.40;46.10;;;;;;5071382;28;20020;-62
2021/07/25 09:07:28;;;;;;;6.35;4.78;;;30.30;46.70;;;;;;5070981;28;20078;-63
2021/07/25 09:10:06;;;;;;;7.00;5.10;;;30.20;46.70;;;;;;5071693;28;20032;-61
2021/07/25 09:12:33;;;;;;;6.22;4.68;;;30.30;46.80;;;;;;5070931;28;20082;-62
2021/07/25 09:15:04;;;;;;;6.47;4.65;;;30.30;47.00;;;;;;5071173;28;20043;-63
2021/07/25 09:17:29;;;;;;;8.00;4.80;;;30.30;46.90;;;;;;5071375;28;20024;-61
2021/07/25 09:20:19;;;;;;;6.22;4.90;;;30.60;47.50;;;;;;5071165;28;20098;-61
2021/07/25 09:22:47;;;;;;;7.28;5.18;;;30.90;46.80;;;;;;5070963;28;20472;-63
2021/07/25 09:25:22;;;;;;;7.75;5.25;;;31.10;46.10;;;;;;5070941;28;20428;-61
2021/07/25 09:28:12;;;;;;;7.15;5.70;;;31.20;45.80;;;;;;5071037;28;20468;-63
2021/07/25 09:30:38;;;;;;;7.00;4.82;;;31.40;44.70;;;;;;5071270;28;20023;-62
2021/07/25 09:33:26;;;;;;;7.20;4.88;;;31.50;45.70;;;;;;5071145;28;20033;-63
2021/07/25 09:35:52;;;;;;;6.60;4.65;;;31.80;45.10;;;;;;5070979;28;20435;-63
2021/07/25 09:38:19;;;;;;;6.18;4.85;;;32.20;45.60;;;;;;5070820;28;20025;-63
2021/07/25 09:40:46;;;;;;;5.97;4.45;;;32.70;45.50;;;;;;5071107;28;20074;-63
2021/07/25 09:43:18;;;;;;;6.35;4.93;;;33.40;45.30;;;;;;5071013;28;20025;-63
2021/07/25 09:45:50;;;;;;;6.65;4.55;;;34.20;44.20;;;;;;5070771;28;20064;-63
2021/07/25 09:48:19;;;;;;;6.28;4.95;;;34.90;43.50;;;;;;5070933;28;20021;-62
2021/07/25 09:50:45;;;;;;;7.35;4.50;;;35.40;43.10;;;;;;5070926;28;20025;-63
2021/07/25 09:53:13;;;;;;;6.28;4.70;;;35.90;42.80;;;;;;5068327;28;20078;-63
2021/07/25 09:55:38;;;;;;;5.45;4.18;;;36.30;42.20;;;;;;5065535;28;20115;-63
2021/07/25 09:58:06;;;;;;;5.97;4.80;;;36.70;41.80;;;;;;5070540;28;20523;-62
2021/07/25 10:00:46;;;;;;;6.25;4.72;;;37.10;41.20;;;;;;5070739;28;20029;-63
2021/07/25 10:03:24;;;;;;;6.03;4.80;;;37.40;39.70;;;;;;5070517;28;20044;-64
2021/07/25 10:05:51;;;;;;;6.35;4.75;;;37.60;39.30;;;;;;5070801;28;20048;-62
2021/07/25 10:08:21;;;;;;;6.13;4.60;;;37.70;39.70;;;;;;5052969;28;20375;-61
2021/07/25 10:10:52;;;;;;;6.00;4.20;;;38.00;39.40;;;;;;5070631;28;20017;-63
2021/07/25 10:13:25;;;;;;;6.30;4.00;;;38.20;39.30;;;;;;5071433;28;20424;-64
2021/07/25 10:15:56;;;;;;;5.72;4.00;;;38.50;39.30;;;;;;5074504;28;20028;-63
2021/07/25 10:18:23;;;;;;;5.85;4.25;;;38.70;38.80;;;;;;5074221;28;20024;-62
2021/07/25 10:20:59;;;;;;;5.10;3.88;;;39.00;38.40;;;;;;5074518;28;20032;-64
2021/07/25 10:23:36;;;;;;;5.80;4.00;;;39.10;37.50;;;;;;5074285;28;20039;-62
2021/07/25 10:26:03;;;;;;;5.63;3.60;;;39.30;37.50;;;;;;5074304;28;20104;-62
2021/07/25 10:28:34;;;;;;;6.03;4.55;;;39.40;37.70;;;;;;5074220;28;20020;-63
2021/07/25 10:31:01;;;;;;;7.00;4.32;;;39.60;37.00;;;;;;5074222;28;20068;-62
2021/07/25 10:33:29;;;;;;;5.55;3.95;;;39.80;36.70;;;;;;5074285;28;20035;-62
2021/07/25 10:35:57;;;;;;;5.82;4.03;;;39.90;36.40;;;;;;5074048;28;20082;-63
2021/07/25 10:38:23;;;;;;;5.25;3.33;;;39.80;36.50;;;;;;5074157;28;20107;-63
2021/07/25 10:40:49;;;;;;;5.50;3.78;;;39.90;36.20;;;;;;5074038;28;20028;-63
2021/07/25 10:43:20;;;;;;;5.30;3.70;;;39.90;35.90;;;;;;5073777;28;20028;-63
2021/07/25 10:46:04;;;;;;;;;;;39.60;35.60;;;;;;5074467;28;20023;-63
2021/07/25 10:48:30;;;;;;;4.97;3.75;;;39.00;35.30;;;;;;5073834;28;20279;-63
2021/07/25 10:51:11;;;;;;;5.15;3.70;;;38.70;35.80;;;;;;5073974;28;20019;-62
2021/07/25 10:53:37;;;;;;;5.70;3.88;;;38.60;35.40;;;;;;5073870;28;20101;-63
2021/07/25 10:56:02;;;;;;;5.40;3.65;;;38.70;36.10;;;;;;5073704;28;20442;-62
2021/07/25 10:58:28;;;;;;;5.22;3.72;;;38.90;36.10;;;;;;5073696;28;20024;-63
2021/07/25 11:00:55;;;;;;;5.15;3.60;;;39.30;35.90;;;;;;5073609;28;20028;-63
2021/07/25 11:03:30;;;;;;;5.07;3.58;;;39.60;35.70;;;;;;5073362;28;20040;-62
2021/07/25 11:06:02;;;;;;;5.15;3.80;;;40.00;34.70;;;;;;5073428;28;20112;-63
2021/07/25 11:08:37;;;;;;;6.30;3.80;;;40.50;35.30;;;;;;5073505;28;20102;-63
2021/07/25 11:11:35;;;;;;;5.15;3.85;;;40.80;34.20;;;;;;5073356;28;20021;-62
2021/07/25 11:14:06;;;;;;;5.70;4.07;;;41.20;33.40;;;;;;5030359;28;20074;-63
2021/07/25 11:16:32;;;;;;;4.90;3.47;;;41.50;33.50;;;;;;5073329;28;20031;-62
2021/07/25 11:18:59;;;;;;;5.20;3.80;;;41.70;33.70;;;;;;5073392;28;20020;-63
2021/07/25 11:21:32;;;;;;;5.13;3.50;;;41.90;32.90;;;;;;5073098;28;20051;-63
2021/07/25 11:23:58;;;;;;;5.32;3.42;;;42.10;32.80;;;;;;5073241;28;20099;-63
2021/07/25 11:26:34;;;;;;;5.72;3.50;;;42.20;33.00;;;;;;5072826;28;20028;-62
2021/07/25 11:29:02;;;;;;;4.97;3.38;;;42.30;32.80;;;;;;5073059;28;20071;-62
2021/07/25 11:31:42;;;;;;;4.70;3.30;;;42.50;32.60;;;;;;5055813;28;20021;-64
2021/07/25 11:34:12;;;;;;;;;;;42.60;32.30;;;;;;5073237;28;20024;-62
2021/07/25 11:36:38;;;;;;;5.18;3.42;;;42.60;31.40;;;;;;5073009;28;19904;-62
2021/07/25 11:39:06;;;;;;;5.15;3.53;;;42.80;32.50;;;;;;5073038;28;20047;-62
2021/07/25 11:41:38;;;;;;;5.40;3.65;;;43.00;32.30;;;;;;5072919;28;20544;-63
2021/07/25 11:44:10;;;;;;;4.60;3.30;;;43.20;32.20;;;;;;5072685;28;20024;-63
2021/07/25 11:46:46;;;;;;;4.85;3.38;;;43.40;32.00;;;;;;5072767;28;20017;-63
2021/07/25 11:49:18;;;;;;;4.63;3.00;;;43.60;30.70;;;;;;5072792;28;20491;-62
2021/07/25 11:51:47;;;;;;;4.32;2.97;;;43.80;31.30;;;;;;5073039;28;20112;-65
2021/07/25 11:54:16;;;;;;;4.88;2.67;;;44.00;31.00;;;;;;5072807;28;20060;-64
2021/07/25 11:56:56;;;;;;;3.90;2.43;;;44.20;30.80;;;;;;5072588;28;20093;-63
2021/07/25 11:59:22;;;;;;;4.10;2.50;;;44.40;30.40;;;;;;5054572;28;20273;-62
2021/07/25 12:01:49;;;;;;;4.30;2.80;;;44.50;30.40;;;;;;5054613;28;20024;-63
2021/07/25 12:04:29;;;;;;;3.88;2.60;;;44.60;30.40;;;;;;5072208;28;20491;-63
2021/07/25 12:07:03;;;;;;;5.20;2.78;;;44.70;30.40;;;;;;5054415;28;20020;-63
2021/07/25 12:09:29;;;;;;;4.00;2.60;;;44.90;30.30;;;;;;5054178;28;20078;-62
2021/07/25 12:12:07;;;;;;;4.50;2.95;;;45.00;30.00;;;;;;5072334;28;20028;-64
2021/07/25 12:14:35;;;;;;;4.07;2.50;;;45.20;29.60;;;;;;5072034;28;20028;-63
2021/07/25 12:17:00;;;;;;;4.70;2.95;;;45.30;29.90;;;;;;5072085;28;20646;-63
2021/07/25 12:19:26;;;;;;;4.00;2.78;;;45.40;29.70;;;;;;5072093;28;20103;-62
2021/07/25 12:22:07;;;;;;;4.72;3.00;;;45.40;29.70;;;;;;5071962;28;20025;-63
2021/07/25 12:24:35;;;;;;;4.40;3.20;;;45.40;29.30;;;;;;5072027;28;20024;-64
2021/07/25 12:27:03;;;;;;;4.97;3.13;;;45.50;29.80;;;;;;5071869;28;20125;-63
2021/07/25 12:29:35;;;;;;;4.40;3.10;;;45.60;29.80;;;;;;5071914;28;20048;-62
2021/07/25 12:32:21;;;;;;;4.57;3.10;;;45.40;29.60;;;;;;5071705;28;20021;-61
2021/07/25 12:34:47;;;;;;;4.60;3.22;;;45.30;29.60;;;;;;5071808;28;20094;-63
2021/07/25 12:37:32;;;;;;;5.05;3.17;;;45.20;29.90;;;;;;5070521;28;20099;-62
2021/07/25 12:40:26;;;;;;;5.50;3.30;;;45.30;29.70;;;;;;5071545;28;20464;-62
2021/07/25 12:42:58;;;;;;;5.15;3.58;;;45.30;29.70;;;;;;5072042;28;20036;-63
2021/07/25 12:45:33;;;;;;;4.88;3.50;;;45.50;29.80;;;;;;5071202;28;20498;-62
2021/07/25 12:48:14;;;;;;;5.20;3.40;;;45.40;29.70;;;;;;5071395;28;20103;-62